Highland, Minnesota
Current Conditions -  °F | °C
As of 10:36 AM on Monday 24 Nov 2014 (Local Time) from KFKA Reporting Station
Overcast Overcast  
Wind Chill:   Ceiling: 800
Heat Index: 22°   Visibility: 7mi
Dew Point: 19°   Wind: 23mph
Humidity: 91%   Direction: 300°WNW
Pressure: 29.37"   Gusts: 31mph
Location:  43.7165°N, 91.9871°W
Report Text: KFKA 241636Z AUTO 30020G27KT 7SM OVC008 M06/M07 A2937 RMK AO2 T10581071
Loading
Personal Weather Stations






























Interactive Weather Map New forecast layout! Learn more

10-Day Weather Forecast

Advertisements
Track Severe Weather on mobile